Time;durP1;ratioP1;P1;durP2;ratioP2;P2;SDS_P1;SDS_P2;PMS_P1;PMS_P2;Temp;Humidity;BMP_temperature;BMP_pressure;BME280_temperature;BME280_humidity;BME280_pressure;Samples;Min_cycle;Max_cycle;Signal;HPM_P1;HPM_P2
2024/01/28 00:00:00;;;;;;;31.65;7.05;;;;;;;1.00;100.00;103026.31;5014718;28;20041;-78
2024/01/28 00:02:25;;;;;;;28.00;6.88;;;;;;;1.00;100.00;103026.31;4999976;28;20033;-79
2024/01/28 00:04:51;;;;;;;25.45;8.90;;;;;;;0.92;100.00;103019.72;5025379;28;20049;-80
2024/01/28 00:07:16;;;;;;;22.75;8.10;;;;;;;0.90;100.00;103024.00;5015004;28;20459;-79
2024/01/28 00:09:42;;;;;;;25.65;8.00;;;;;;;0.95;100.00;103017.06;5028385;28;20499;-80
2024/01/28 00:12:08;;;;;;;34.88;8.25;;;;;;;0.93;100.00;103016.28;5028182;28;20052;-80
2024/01/28 00:14:33;;;;;;;22.45;6.18;;;;;;;0.99;100.00;103006.78;4994716;28;20032;-80
2024/01/28 00:16:59;;;;;;;19.75;7.03;;;;;;;0.89;100.00;103011.28;5013846;28;20294;-80
2024/01/28 00:19:25;;;;;;;19.77;6.60;;;;;;;0.80;100.00;103003.84;5027030;28;20404;-77
2024/01/28 00:21:50;;;;;;;28.08;7.18;;;;;;;0.83;100.00;103004.63;5014897;28;20045;-78
2024/01/28 00:24:18;;;;;;;29.13;6.80;;;;;;;0.85;100.00;103002.88;5030843;28;20117;-80
2024/01/28 00:26:43;;;;;;;22.25;7.07;;;;;;;0.73;100.00;103000.59;5034603;28;20492;-80
2024/01/28 00:29:09;;;;;;;25.85;6.70;;;;;;;0.68;100.00;103002.44;5028236;28;20044;-80
2024/01/28 00:31:34;;;;;;;18.60;7.05;;;;;;;0.73;100.00;102996.31;4992579;28;20076;-80
2024/01/28 00:34:00;;;;;;;25.15;6.40;;;;;;;0.72;100.00;102994.66;5009584;28;20096;-80
2024/01/28 00:36:26;;;;;;;25.95;6.97;;;;;;;0.71;100.00;102992.97;5013691;28;20017;-81
2024/01/28 00:38:52;;;;;;;31.65;6.78;;;;;;;0.79;100.00;102987.66;5030545;28;20059;-81
2024/01/28 00:41:29;;;;;;;22.27;6.22;;;;;;;0.69;100.00;102987.06;4995345;28;20042;-80
2024/01/28 00:43:55;;;;;;;16.08;6.05;;;;;;;0.66;100.00;102982.06;5011481;28;20034;-80
2024/01/28 00:46:24;;;;;;;30.08;7.05;;;;;;;0.68;100.00;102976.88;4993107;28;20125;-79
2024/01/28 00:48:49;;;;;;;18.38;6.35;;;;;;;0.72;100.00;102978.50;5010671;28;20033;-80
2024/01/28 00:51:15;;;;;;;23.00;6.75;;;;;;;0.69;100.00;102969.19;4994897;28;20045;-79
2024/01/28 00:53:41;;;;;;;22.63;7.80;;;;;;;0.66;100.00;102965.88;4998106;28;20018;-78
2024/01/28 00:56:07;;;;;;;20.33;6.10;;;;;;;0.67;100.00;102959.91;5010982;28;20547;-77
2024/01/28 00:58:33;;;;;;;30.02;7.18;;;;;;;0.61;100.00;102966.00;5032347;28;20025;-80
2024/01/28 01:00:58;;;;;;;16.65;6.05;;;;;;;0.57;100.00;102967.78;5029708;28;20040;-80
2024/01/28 01:03:24;;;;;;;17.70;6.40;;;;;;;0.61;100.00;102971.09;4997410;28;20037;-80
2024/01/28 01:05:49;;;;;;;25.90;6.53;;;;;;;0.65;100.00;102967.59;4995750;28;20099;-81
2024/01/28 01:08:15;;;;;;;28.17;8.10;;;;;;;0.66;100.00;102959.06;5024925;28;20037;-79
2024/01/28 01:10:43;;;;;;;25.10;6.45;;;;;;;0.65;100.00;102964.22;4992181;28;20041;-79
2024/01/28 01:13:09;;;;;;;21.88;6.13;;;;;;;0.60;100.00;102958.38;5025898;28;20025;-81
2024/01/28 01:15:34;;;;;;;25.83;6.40;;;;;;;0.54;100.00;102955.09;5025704;28;20095;-81
2024/01/28 01:18:00;;;;;;;17.83;6.05;;;;;;;0.56;100.00;102957.63;4993259;28;20697;-78
2024/01/28 01:20:25;;;;;;;23.30;6.63;;;;;;;0.55;100.00;102950.84;5011886;28;20029;-81
2024/01/28 01:22:51;;;;;;;17.25;5.55;;;;;;;0.65;100.00;102954.84;5009301;28;20044;-81
2024/01/28 01:25:16;;;;;;;21.70;6.13;;;;;;;0.58;100.00;102959.28;5012382;28;20041;-78
2024/01/28 01:27:42;;;;;;;19.65;6.20;;;;;;;0.57;100.00;102959.31;5027225;28;20049;-79
2024/01/28 01:30:09;;;;;;;21.90;6.22;;;;;;;0.51;100.00;102947.53;5011465;28;20033;-79
2024/01/28 01:32:37;;;;;;;16.75;6.88;;;;;;;0.55;100.00;102951.69;5015022;28;20123;-80
2024/01/28 01:35:03;;;;;;;27.80;7.50;;;;;;;0.47;100.00;102952.72;5028091;28;20049;-78
2024/01/28 01:37:28;;;;;;;31.10;6.72;;;;;;;0.64;100.00;102945.50;5016069;28;20030;-78
2024/01/28 01:39:53;;;;;;;25.10;5.65;;;;;;;0.58;100.00;102945.63;5009317;28;20080;-79
2024/01/28 01:42:19;;;;;;;27.00;7.68;;;;;;;0.68;100.00;102939.44;5034387;28;20033;-79
2024/01/28 01:44:44;;;;;;;24.30;7.15;;;;;;;0.51;100.00;102939.00;5016081;28;20057;-79
2024/01/28 01:47:10;;;;;;;15.82;5.40;;;;;;;0.54;100.00;102939.78;5015995;28;20045;-81
2024/01/28 01:49:36;;;;;;;14.48;5.22;;;;;;;0.45;100.00;102940.00;4998971;28;20045;-81
2024/01/28 01:52:03;;;;;;;23.02;5.97;;;;;;;0.46;100.00;102945.97;5032156;28;20048;-80
2024/01/28 01:54:28;;;;;;;22.90;5.97;;;;;;;0.48;100.00;102951.88;5034705;28;20041;-79
2024/01/28 01:56:55;;;;;;;15.43;5.13;;;;;;;0.50;100.00;102945.84;5020363;28;20076;-80
2024/01/28 01:59:21;;;;;;;22.75;6.10;;;;;;;0.46;100.00;102938.31;5017078;28;20110;-80
2024/01/28 02:01:46;;;;;;;21.42;5.18;;;;;;;0.39;100.00;102951.19;5034154;28;20583;-80
2024/01/28 02:04:12;;;;;;;18.98;5.22;;;;;;;0.46;100.00;102936.59;5029262;28;20083;-80
2024/01/28 02:06:38;;;;;;;15.30;5.28;;;;;;;0.46;100.00;102941.69;5016079;28;20040;-79
2024/01/28 02:09:05;;;;;;;21.83;5.68;;;;;;;0.45;100.00;102940.00;4997910;28;20022;-79
2024/01/28 02:11:31;;;;;;;19.95;5.38;;;;;;;0.37;100.00;102937.63;5016284;28;20044;-81
2024/01/28 02:13:56;;;;;;;25.48;6.97;;;;;;;0.30;100.00;102935.28;5012058;28;20033;-80
2024/01/28 02:16:24;;;;;;;20.83;5.93;;;;;;;0.33;100.00;102925.00;5001399;28;20033;-79
2024/01/28 02:18:49;;;;;;;19.55;5.32;;;;;;;0.22;100.00;102927.81;5031175;28;20045;-78
2024/01/28 02:21:15;;;;;;;21.20;5.30;;;;;;;0.35;100.00;102913.03;5014412;28;20067;-80
2024/01/28 02:23:40;;;;;;;19.20;5.10;;;;;;;0.35;100.00;102908.75;5019194;28;20068;-80
2024/01/28 02:26:05;;;;;;;14.07;5.60;;;;;;;0.28;100.00;102903.84;5016639;28;20032;-80
2024/01/28 02:28:32;;;;;;;15.90;4.97;;;;;;;0.30;100.00;102899.53;5014692;28;20074;-80
2024/01/28 02:30:57;;;;;;;20.65;5.85;;;;;;;0.23;100.00;102903.97;5012201;28;20033;-78
2024/01/28 02:33:22;;;;;;;15.82;4.93;;;;;;;0.33;100.00;102894.38;5030078;28;20053;-80
2024/01/28 02:35:48;;;;;;;16.13;5.70;;;;;;;0.37;100.00;102890.84;4998810;28;20030;-80
2024/01/28 02:38:13;;;;;;;20.65;5.18;;;;;;;0.33;100.00;102889.28;5035277;28;20051;-80
2024/01/28 02:40:39;;;;;;;24.98;6.05;;;;;;;0.18;100.00;102886.22;5032551;28;20450;-80
2024/01/28 02:43:05;;;;;;;13.45;5.00;;;;;;;0.21;100.00;102884.44;5018968;28;20028;-81
2024/01/28 02:45:31;;;;;;;21.25;5.45;;;;;;;0.27;100.00;102882.59;5031933;28;20112;-81
2024/01/28 02:47:57;;;;;;;28.88;6.00;;;;;;;0.39;100.00;102881.44;5010583;28;20134;-79
2024/01/28 02:50:23;;;;;;;22.38;5.35;;;;;;;0.31;100.00;102875.72;4993681;28;20041;-80
2024/01/28 02:52:48;;;;;;;15.20;5.25;;;;;;;0.31;100.00;102866.31;5032208;28;20036;-78
2024/01/28 02:55:13;;;;;;;16.27;4.80;;;;;;;0.38;100.00;102864.47;5017023;28;20049;-80
2024/01/28 02:57:39;;;;;;;17.95;5.25;;;;;;;0.30;100.00;102871.47;5030611;28;20355;-81
2024/01/28 03:00:06;;;;;;;24.33;5.63;;;;;;;0.29;100.00;102873.19;5007990;28;20033;-79
2024/01/28 03:02:32;;;;;;;23.75;5.88;;;;;;;0.21;100.00;102875.09;4996597;28;20030;-80
2024/01/28 03:04:57;;;;;;;20.67;4.95;;;;;;;0.27;100.00;102863.91;5020619;28;20500;-78
2024/01/28 03:07:22;;;;;;;21.27;4.78;;;;;;;0.36;100.00;102859.41;5031163;28;20038;-79
2024/01/28 03:09:48;;;;;;;29.58;5.63;;;;;;;0.23;100.00;102858.03;5014431;28;20110;-81
2024/01/28 03:12:13;;;;;;;17.58;5.15;;;;;;;0.34;100.00;102852.63;5013551;28;20045;-80
2024/01/28 03:14:39;;;;;;;18.70;4.60;;;;;;;0.37;100.00;102853.41;4997665;28;20045;-81
2024/01/28 03:17:04;;;;;;;17.30;4.40;;;;;;;0.39;100.00;102861.84;4998133;28;20037;-78
2024/01/28 03:19:30;;;;;;;21.92;5.15;;;;;;;0.37;100.00;102861.06;4994141;28;20080;-79
2024/01/28 03:21:55;;;;;;;14.10;4.78;;;;;;;0.39;100.00;102859.31;5011189;28;20412;-80
2024/01/28 03:24:22;;;;;;;18.65;6.13;;;;;;;0.52;100.00;102851.34;5011988;28;20505;-78
2024/01/28 03:26:47;;;;;;;19.23;4.80;;;;;;;0.50;100.00;102866.69;4995388;28;22331;-79
2024/01/28 03:29:13;;;;;;;19.52;5.35;;;;;;;0.49;100.00;102859.06;4996080;28;20052;-81
2024/01/28 03:31:40;;;;;;;19.65;5.25;;;;;;;0.51;100.00;102859.84;5015557;28;20033;-81
2024/01/28 03:34:06;;;;;;;17.90;4.75;;;;;;;0.47;100.00;102850.63;5012287;28;20392;-80
2024/01/28 03:36:31;;;;;;;16.80;5.03;;;;;;;0.40;100.00;102847.41;5014535;28;20036;-79
2024/01/28 03:38:56;;;;;;;16.33;5.43;;;;;;;0.45;100.00;102849.81;5010132;28;20041;-80
2024/01/28 03:41:22;;;;;;;21.30;6.50;;;;;;;0.54;100.00;102852.97;4995311;28;20037;-77
2024/01/28 03:43:48;;;;;;;25.35;5.75;;;;;;;0.52;100.00;102851.34;5028150;28;20653;-79
2024/01/28 03:46:13;;;;;;;26.00;5.15;;;;;;;0.53;100.00;102856.41;5011706;28;20080;-81
2024/01/28 03:48:38;;;;;;;17.33;4.65;;;;;;;0.42;100.00;102850.75;4993381;28;20026;-80
2024/01/28 03:51:04;;;;;;;15.48;4.88;;;;;;;0.39;100.00;102843.97;5003670;28;20044;-78
2024/01/28 03:53:30;;;;;;;17.90;5.25;;;;;;;0.32;100.00;102844.19;5006745;28;20052;-79
2024/01/28 03:55:55;;;;;;;21.35;5.30;;;;;;;0.28;100.00;102840.88;5012053;28;20056;-79
2024/01/28 03:58:21;;;;;;;22.25;4.85;;;;;;;0.38;100.00;102842.31;5012879;28;20041;-79
2024/01/28 04:00:47;;;;;;;17.25;3.95;;;;;;;0.42;100.00;102842.25;5015184;28;20772;-79
2024/01/28 04:03:13;;;;;;;20.23;4.78;;;;;;;0.34;100.00;102835.63;5026268;28;20046;-80
2024/01/28 04:05:38;;;;;;;17.10;4.55;;;;;;;0.26;100.00;102827.31;5027750;28;20113;-79
2024/01/28 04:08:04;;;;;;;18.05;5.57;;;;;;;0.28;100.00;102827.28;5015018;28;20037;-80
2024/01/28 04:10:29;;;;;;;16.83;4.13;;;;;;;0.29;100.00;102832.34;5012253;28;20029;-80
2024/01/28 04:12:55;;;;;;;14.95;4.07;;;;;;;0.18;100.00;102824.97;4997849;28;20571;-80
2024/01/28 04:15:20;;;;;;;30.40;4.65;;;;;;;0.16;100.00;102829.28;4997943;28;20045;-79
2024/01/28 04:17:46;;;;;;;14.35;4.93;;;;;;;0.16;100.00;102831.00;5015566;28;20037;-81
2024/01/28 04:20:12;;;;;;;17.02;4.22;;;;;;;0.27;100.00;102831.56;5029140;28;20044;-80
2024/01/28 04:22:38;;;;;;;39.30;6.50;;;;;;;0.31;100.00;102822.94;5014092;28;20029;-79
2024/01/28 04:25:04;;;;;;;20.80;4.65;;;;;;;0.19;100.00;102825.81;5008018;28;20448;-80
2024/01/28 04:27:30;;;;;;;27.08;4.57;;;;;;;0.23;100.00;102818.91;4998478;28;20087;-80
2024/01/28 04:29:55;;;;;;;11.30;3.97;;;;;;;0.26;100.00;102819.66;5010243;28;20526;-79
2024/01/28 04:32:20;;;;;;;17.65;4.22;;;;;;;0.18;100.00;102819.03;5010526;28;20091;-79
2024/01/28 04:34:46;;;;;;;23.63;4.95;;;;;;;0.13;100.00;102819.16;4992433;28;20942;-80
2024/01/28 04:37:11;;;;;;;15.02;4.30;;;;;;;0.19;100.00;102818.16;5034710;28;20488;-78
2024/01/28 04:39:37;;;;;;;18.90;4.18;;;;;;;0.18;100.00;102819.88;5027516;28;20045;-79
2024/01/28 04:42:03;;;;;;;15.98;4.03;;;;;;;0.31;100.00;102820.38;4995438;28;20044;-79
2024/01/28 04:44:29;;;;;;;17.77;4.25;;;;;;;0.15;100.00;102814.84;5025504;28;20041;-78
2024/01/28 04:46:57;;;;;;;19.95;4.13;;;;;;;0.21;100.00;102815.56;4996327;28;20366;-78
2024/01/28 04:49:25;;;;;;;18.02;4.05;;;;;;;0.15;100.00;102809.75;5025465;28;20045;-79
2024/01/28 04:51:50;;;;;;;23.05;4.35;;;;;;;0.22;100.00;102815.53;5028551;28;20029;-80
2024/01/28 04:54:16;;;;;;;28.05;5.88;;;;;;;0.36;100.00;102803.25;4997602;28;20542;-80
2024/01/28 04:56:42;;;;;;;14.68;4.25;;;;;;;0.27;100.00;102808.59;5019685;28;20480;-79
2024/01/28 04:59:08;;;;;;;20.98;4.53;;;;;;;0.28;100.00;102814.53;4996766;28;20033;-78
2024/01/28 05:01:34;;;;;;;20.50;4.47;;;;;;;0.30;100.00;102811.06;4997597;28;20032;-80
2024/01/28 05:04:01;;;;;;;16.92;3.60;;;;;;;0.18;100.00;102801.16;5031062;28;20021;-79
2024/01/28 05:06:34;;;;;;;16.88;5.45;;;;;;;0.19;100.00;102803.69;5033169;28;21623;-80
2024/01/28 05:09:01;;;;;;;16.50;4.43;;;;;;;0.16;100.00;102803.75;5015251;28;20036;-78
2024/01/28 05:11:27;;;;;;;20.88;4.63;;;;;;;0.28;100.00;102802.59;5015365;28;20207;-80
2024/01/28 05:13:53;;;;;;;14.93;4.13;;;;;;;0.28;100.00;102792.38;4998384;28;20069;-80
2024/01/28 05:16:18;;;;;;;17.02;4.25;;;;;;;0.18;100.00;102786.69;5010291;28;20117;-80
2024/01/28 05:18:43;;;;;;;17.13;5.03;;;;;;;0.16;100.00;102791.00;4998302;28;20435;-80
2024/01/28 05:21:09;;;;;;;22.02;4.47;;;;;;;0.17;100.00;102777.38;5027951;28;20060;-78
2024/01/28 05:23:34;;;;;;;14.90;4.63;;;;;;;0.22;100.00;102779.78;5033857;28;20036;-80
2024/01/28 05:26:01;;;;;;;22.30;4.60;;;;;;;0.15;100.00;102784.22;4996698;28;20120;-78
2024/01/28 05:28:26;;;;;;;14.32;4.05;;;;;;;0.08;100.00;102777.63;5001618;28;20040;-80
2024/01/28 05:30:52;;;;;;;13.07;3.58;;;;;;;0.22;100.00;102777.25;4996966;28;20041;-78
2024/01/28 05:33:18;;;;;;;14.23;5.40;;;;;;;0.10;100.00;102762.28;5014146;28;20052;-80
2024/01/28 05:35:43;;;;;;;16.17;4.38;;;;;;;0.03;100.00;102750.53;5034201;28;20040;-79
2024/01/28 05:38:09;;;;;;;16.98;4.03;;;;;;;0.08;100.00;102751.28;5014587;28;20029;-80
2024/01/28 05:40:35;;;;;;;13.27;4.00;;;;;;;-0.01;100.00;102760.00;5014706;28;20045;-80
2024/01/28 05:43:01;;;;;;;21.02;4.10;;;;;;;0.06;100.00;102756.41;5015123;28;20037;-80
2024/01/28 05:45:26;;;;;;;17.55;4.32;;;;;;;0.11;100.00;102758.81;5011709;28;20631;-79
2024/01/28 05:47:52;;;;;;;15.70;4.72;;;;;;;0.07;100.00;102759.78;5014709;28;20037;-79
2024/01/28 05:50:17;;;;;;;19.48;4.18;;;;;;;0.05;100.00;102752.16;5034209;28;20037;-79
2024/01/28 05:52:42;;;;;;;17.85;4.60;;;;;;;0.12;100.00;102758.78;5033861;28;20029;-79
2024/01/28 05:55:08;;;;;;;15.73;4.40;;;;;;;0.15;100.00;102752.75;5034565;28;20630;-77
2024/01/28 05:57:33;;;;;;;15.02;3.90;;;;;;;0.04;100.00;102754.75;5033227;28;20033;-79
2024/01/28 05:59:59;;;;;;;15.25;3.72;;;;;;;0.12;100.00;102756.25;4995377;28;20037;-78
2024/01/28 06:02:24;;;;;;;15.20;4.07;;;;;;;0.12;100.00;102760.50;5019476;28;20036;-79
2024/01/28 06:04:50;;;;;;;19.27;4.03;;;;;;;0.05;100.00;102752.16;4996153;28;20058;-79
2024/01/28 06:07:15;;;;;;;16.00;3.80;;;;;;;0.08;100.00;102751.28;5012666;28;20400;-79
2024/01/28 06:09:40;;;;;;;13.75;3.63;;;;;;;0.05;100.00;102756.44;5015581;28;20041;-78
2024/01/28 06:12:06;;;;;;;13.38;3.63;;;;;;;0.13;100.00;102752.81;5032287;28;20028;-79
2024/01/28 06:14:31;;;;;;;17.08;3.42;;;;;;;0.20;100.00;102750.94;5010374;28;20033;-80
2024/01/28 06:16:57;;;;;;;12.20;4.00;;;;;;;0.24;100.00;102751.69;5011321;28;20566;-78
2024/01/28 06:19:23;;;;;;;15.30;4.45;;;;;;;0.23;100.00;102750.84;5030922;28;20036;-79
2024/01/28 06:21:48;;;;;;;13.00;3.72;;;;;;;0.29;100.00;102752.41;5029605;28;20095;-79
2024/01/28 06:24:14;;;;;;;19.58;3.67;;;;;;;0.25;100.00;102751.66;5028627;28;20145;-79
2024/01/28 06:26:39;;;;;;;16.10;4.63;;;;;;;0.16;100.00;102742.53;5021596;28;20021;-81
2024/01/28 06:29:05;;;;;;;15.52;4.35;;;;;;;0.25;100.00;102745.72;5031120;28;20040;-78
2024/01/28 06:31:30;;;;;;;14.85;3.60;;;;;;;0.21;100.00;102741.56;4993440;28;20030;-79
2024/01/28 06:33:56;;;;;;;13.18;3.78;;;;;;;0.18;100.00;102748.41;5032176;28;20489;-79
2024/01/28 06:36:21;;;;;;;14.02;4.40;;;;;;;0.17;100.00;102744.19;4995210;28;20044;-79
2024/01/28 06:38:47;;;;;;;16.45;3.75;;;;;;;0.20;100.00;102748.38;5030182;28;20120;-77
2024/01/28 06:41:16;;;;;;;10.80;4.50;;;;;;;0.26;100.00;102734.63;5011853;28;20048;-78
2024/01/28 06:43:42;;;;;;;15.63;3.78;;;;;;;0.22;100.00;102733.03;5016347;28;20037;-79
2024/01/28 06:46:08;;;;;;;14.93;3.90;;;;;;;0.27;100.00;102732.03;5029849;28;20041;-78
2024/01/28 06:48:33;;;;;;;12.43;3.78;;;;;;;0.26;100.00;102730.34;4999427;28;20052;-77
2024/01/28 06:50:59;;;;;;;20.35;3.80;;;;;;;0.25;100.00;102725.31;5010488;28;20042;-78
2024/01/28 06:53:24;;;;;;;16.75;3.47;;;;;;;0.26;100.00;102724.41;5030386;28;20037;-79
2024/01/28 06:55:50;;;;;;;16.30;4.63;;;;;;;0.26;100.00;102726.97;5010532;28;20060;-79
2024/01/28 06:58:15;;;;;;;15.63;3.63;;;;;;;0.27;100.00;102728.66;4994870;28;20037;-80
2024/01/28 07:00:41;;;;;;;14.75;3.67;;;;;;;0.26;100.00;102725.22;5015019;28;20041;-79
2024/01/28 07:03:06;;;;;;;17.67;4.60;;;;;;;0.23;100.00;102720.25;5011144;28;20038;-77
2024/01/28 07:05:32;;;;;;;10.77;3.67;;;;;;;0.19;100.00;102716.09;5009268;28;20076;-77
2024/01/28 07:07:58;;;;;;;13.55;3.90;;;;;;;0.23;100.00;102714.28;4996477;28;20511;-80
2024/01/28 07:10:23;;;;;;;17.80;3.95;;;;;;;0.19;100.00;102716.09;4992597;28;20037;-80
2024/01/28 07:12:49;;;;;;;16.33;3.88;;;;;;;0.27;100.00;102714.16;5029318;28;20037;-78
2024/01/28 07:15:14;;;;;;;18.10;4.25;;;;;;;0.26;100.00;102717.56;4996727;28;20044;-79
2024/01/28 07:17:40;;;;;;;15.25;3.70;;;;;;;0.34;100.00;102707.16;5012744;28;20040;-81
2024/01/28 07:20:06;;;;;;;11.60;3.85;;;;;;;0.33;100.00;102710.59;5005696;28;20451;-79
2024/01/28 07:22:32;;;;;;;17.00;3.80;;;;;;;0.38;100.00;102696.84;5012460;28;20116;-80
2024/01/28 07:24:57;;;;;;;14.55;3.53;;;;;;;0.36;100.00;102690.13;4994153;28;20543;-78
2024/01/28 07:27:23;;;;;;;19.38;4.63;;;;;;;0.45;100.00;102696.66;4998601;28;20404;-79
2024/01/28 07:29:48;;;;;;;16.45;3.67;;;;;;;0.38;100.00;102694.28;5015723;28;20038;-78
2024/01/28 07:32:14;;;;;;;8.90;3.53;;;;;;;0.44;100.00;102702.66;5027818;28;20107;-78
2024/01/28 07:34:42;;;;;;;13.73;3.85;;;;;;;0.43;100.00;102704.34;4997603;28;20040;-80
2024/01/28 07:37:08;;;;;;;10.20;3.70;;;;;;;0.54;99.69;102698.94;5017219;28;20035;-79
2024/01/28 07:39:34;;;;;;;12.45;3.92;;;;;;;0.46;100.00;102706.00;4992716;28;20061;-78
2024/01/28 07:41:59;;;;;;;15.10;5.18;;;;;;;0.45;99.63;102706.88;5014378;28;20057;-80
2024/01/28 07:44:26;;;;;;;14.77;3.40;;;;;;;0.60;99.71;102705.59;4988624;28;20535;-80
2024/01/28 07:46:52;;;;;;;12.02;2.75;;;;;;;0.61;98.85;102704.72;5007593;28;20037;-79
2024/01/28 07:49:19;;;;;;;18.00;3.97;;;;;;;0.58;98.38;102700.53;5026460;28;20086;-78
2024/01/28 07:51:44;;;;;;;11.77;3.58;;;;;;;0.65;98.20;102696.09;5029151;28;20060;-80
2024/01/28 07:54:10;;;;;;;19.75;3.83;;;;;;;0.60;98.65;102701.31;5029112;28;20061;-79
2024/01/28 07:56:35;;;;;;;10.60;4.10;;;;;;;0.66;97.79;102690.06;5010174;28;20032;-79
2024/01/28 07:59:01;;;;;;;13.40;3.70;;;;;;;0.76;97.40;102687.22;5029211;28;20029;-77
2024/01/28 08:01:30;;;;;;;12.73;3.33;;;;;;;0.74;97.56;102685.59;5006461;28;20033;-80
2024/01/28 08:03:59;;;;;;;12.60;3.88;;;;;;;0.77;97.56;102685.47;5025996;28;20034;-80
2024/01/28 08:06:24;;;;;;;19.48;3.75;;;;;;;0.73;97.49;102676.25;5011580;28;20170;-77
2024/01/28 08:08:51;;;;;;;12.90;3.38;;;;;;;0.76;97.74;102684.66;5009704;28;20649;-79
2024/01/28 08:11:16;;;;;;;9.00;3.88;;;;;;;0.82;97.24;102675.97;4992342;28;20037;-79
2024/01/28 08:13:41;;;;;;;10.93;3.58;;;;;;;0.81;97.51;102687.09;4989863;28;20033;-79
2024/01/28 08:16:07;;;;;;;12.52;3.97;;;;;;;0.84;97.42;102683.59;4998684;28;20038;-77
2024/01/28 08:18:33;;;;;;;16.65;5.47;;;;;;;0.81;97.34;102686.22;5010102;28;20033;-79
2024/01/28 08:20:58;;;;;;;16.92;7.07;;;;;;;0.83;97.41;102675.09;4996725;28;20063;-79
2024/01/28 08:23:26;;;;;;;33.80;9.23;;;;;;;0.85;97.46;102668.22;4989411;28;20376;-80
2024/01/28 08:25:52;;;;;;;46.38;14.30;;;;;;;0.93;96.98;102668.00;5024140;28;20434;-78
2024/01/28 08:28:18;;;;;;;17.23;5.18;;;;;;;0.94;96.64;102667.94;5029743;28;20037;-79
2024/01/28 08:30:44;;;;;;;10.63;3.85;;;;;;;1.05;96.28;102662.47;5033228;28;20060;-81
2024/01/28 08:33:10;;;;;;;12.25;3.92;;;;;;;1.11;96.15;102669.13;5003344;28;20037;-79
2024/01/28 08:35:37;;;;;;;10.88;3.97;;;;;;;1.17;95.51;102668.94;5015631;28;20037;-77
2024/01/28 08:38:03;;;;;;;11.23;3.65;;;;;;;1.16;95.03;102668.09;4996807;28;20033;-79
2024/01/28 08:40:29;;;;;;;18.27;3.72;;;;;;;1.20;95.01;102663.72;5002535;28;20037;-78
2024/01/28 08:42:54;;;;;;;16.20;4.78;;;;;;;1.15;94.45;102658.75;5005054;28;20033;-79
2024/01/28 08:45:20;;;;;;;19.85;4.50;;;;;;;1.22;94.26;102656.81;5017216;28;20042;-79
2024/01/28 08:47:45;;;;;;;9.88;3.58;;;;;;;1.30;94.12;102662.53;5001770;28;20029;-79
2024/01/28 08:50:10;;;;;;;11.95;3.65;;;;;;;1.29;94.37;102652.38;4998888;28;20045;-78
2024/01/28 08:52:36;;;;;;;14.75;3.80;;;;;;;1.30;93.91;102649.75;4998645;28;20034;-80
2024/01/28 08:55:02;;;;;;;19.67;5.05;;;;;;;1.52;93.91;102656.69;5000452;28;20026;-80
2024/01/28 08:57:28;;;;;;;10.73;3.78;;;;;;;1.70;91.97;102648.41;5032771;28;20031;-79
2024/01/28 08:59:53;;;;;;;11.98;3.20;;;;;;;1.86;90.19;102651.25;5001313;28;20021;-79
2024/01/28 09:02:19;;;;;;;10.00;3.78;;;;;;;1.97;89.95;102655.16;4996712;28;20080;-80
2024/01/28 09:04:44;;;;;;;9.57;3.90;;;;;;;2.14;88.46;102648.53;5033770;28;20026;-78
2024/01/28 09:07:13;;;;;;;12.45;3.42;;;;;;;2.38;87.55;102655.38;5012905;28;20044;-81
2024/01/28 09:09:38;;;;;;;13.05;3.47;;;;;;;2.43;86.07;102656.88;4987305;28;20168;-80
2024/01/28 09:12:04;;;;;;;16.27;3.80;;;;;;;2.56;85.54;102664.09;5034499;28;20124;-80
2024/01/28 09:14:30;;;;;;;18.48;4.13;;;;;;;2.52;85.45;102664.22;5030878;28;20106;-79
2024/01/28 09:16:55;;;;;;;10.85;3.10;;;;;;;2.63;85.15;102666.34;5032889;28;20021;-81
2024/01/28 09:19:21;;;;;;;10.10;2.83;;;;;;;2.64;85.09;102668.03;4995615;28;20484;-80
2024/01/28 09:21:46;;;;;;;12.63;3.38;;;;;;;2.54;85.85;102664.13;5019533;28;20029;-80
2024/01/28 09:24:12;;;;;;;8.50;3.78;;;;;;;2.51;85.65;102665.09;5013401;28;20037;-81
2024/01/28 09:26:37;;;;;;;11.50;3.38;;;;;;;2.50;85.98;102670.28;5013919;28;20033;-80
2024/01/28 09:29:02;;;;;;;13.48;3.20;;;;;;;2.44;86.52;102663.66;5018604;28;20048;-79
2024/01/28 09:31:29;;;;;;;14.38;3.80;;;;;;;2.53;85.87;102668.44;5032210;28;20392;-80
2024/01/28 09:33:54;;;;;;;11.90;3.67;;;;;;;2.57;86.22;102661.47;5031391;28;20031;-80
2024/01/28 09:36:19;;;;;;;15.75;3.53;;;;;;;2.58;85.80;102654.63;5033173;28;20618;-80
2024/01/28 09:38:45;;;;;;;13.07;3.45;;;;;;;2.55;85.83;102667.56;5000213;28;20041;-80
2024/01/28 09:41:22;;;;;;;12.52;3.85;;;;;;;2.61;85.40;102664.75;5015671;28;20041;-78
2024/01/28 09:43:48;;;;;;;9.68;3.08;;;;;;;2.61;85.58;102659.63;5016746;28;20068;-80
2024/01/28 09:46:14;;;;;;;14.13;3.60;;;;;;;2.76;85.77;102660.78;5029218;28;20038;-81
2024/01/28 09:48:42;;;;;;;10.30;3.33;;;;;;;2.69;85.37;102662.72;5015322;28;20087;-79
2024/01/28 09:51:09;;;;;;;15.15;4.13;;;;;;;2.78;84.53;102654.69;5017001;28;20038;-79
2024/01/28 09:53:34;;;;;;;9.13;3.38;;;;;;;2.81;83.62;102652.00;5036111;28;20034;-81
2024/01/28 09:56:00;;;;;;;16.50;4.63;;;;;;;2.78;83.97;102657.25;5000562;28;20036;-80
2024/01/28 09:58:27;;;;;;;9.63;4.32;;;;;;;2.91;83.52;102649.91;5004736;28;20046;-78
2024/01/28 10:00:54;;;;;;;10.35;3.25;;;;;;;2.95;83.21;102654.00;5031425;28;20151;-78
2024/01/28 10:03:20;;;;;;;10.32;4.28;;;;;;;3.00;82.28;102649.53;5018454;28;20049;-78
2024/01/28 10:05:45;;;;;;;19.92;5.85;;;;;;;3.06;81.99;102651.84;4998223;28;20033;-79
2024/01/28 10:08:10;;;;;;;19.13;3.65;;;;;;;3.07;82.82;102647.56;5013744;28;20041;-79
2024/01/28 10:10:36;;;;;;;10.05;3.30;;;;;;;3.18;81.72;102647.97;5037907;28;20038;-80
2024/01/28 10:13:03;;;;;;;15.68;3.47;;;;;;;3.27;81.02;102644.19;4990818;28;20033;-78
2024/01/28 10:15:30;;;;;;;8.77;3.10;;;;;;;3.26;81.22;102640.81;5017990;28;20021;-79
2024/01/28 10:17:56;;;;;;;12.82;3.10;;;;;;;3.39;81.49;102651.38;5017678;28;20033;-81
2024/01/28 10:20:23;;;;;;;15.43;3.38;;;;;;;3.41;80.07;102641.03;5031301;28;20394;-79
2024/01/28 10:22:51;;;;;;;14.77;5.25;;;;;;;3.46;80.36;102639.94;5010454;28;20056;-75
2024/01/28 10:25:17;;;;;;;10.20;3.40;;;;;;;3.53;80.45;102637.97;5031281;28;20388;-81
2024/01/28 10:27:47;;;;;;;11.52;4.72;;;;;;;3.57;79.52;102629.25;5016268;28;20471;-79
2024/01/28 10:30:14;;;;;;;12.02;3.75;;;;;;;3.57;79.97;102630.97;5012578;28;20051;-78
2024/01/28 10:32:41;;;;;;;8.82;3.30;;;;;;;3.61;80.66;102632.50;5033848;28;20025;-79
2024/01/28 10:35:08;;;;;;;9.60;3.33;;;;;;;3.75;79.32;102627.63;5015969;28;20155;-80
2024/01/28 10:37:34;;;;;;;11.07;3.70;;;;;;;3.79;79.44;102628.34;4997862;28;20574;-78
2024/01/28 10:40:06;;;;;;;11.00;3.80;;;;;;;3.86;78.85;102629.69;5001932;28;20029;-81
2024/01/28 10:42:39;;;;;;;9.75;3.30;;;;;;;3.94;78.02;102627.66;5016404;28;20037;-77
2024/01/28 10:45:13;;;;;;;15.52;3.88;;;;;;;4.04;78.58;102618.63;5029280;28;20036;-79
2024/01/28 10:47:48;;;;;;;13.20;4.35;;;;;;;4.12;77.39;102617.44;5010838;28;20049;-76
2024/01/28 10:50:14;;;;;;;15.95;3.60;;;;;;;4.15;76.66;102617.31;5034214;28;20029;-79
2024/01/28 10:52:43;;;;;;;13.70;4.03;;;;;;;4.17;77.82;102615.50;4993901;28;20068;-79
2024/01/28 10:55:10;;;;;;;15.45;4.57;;;;;;;4.27;78.03;102612.44;5013514;28;20051;-81
2024/01/28 10:57:36;;;;;;;10.38;3.58;;;;;;;4.38;76.87;102616.25;5009839;28;20037;-80
2024/01/28 11:00:06;;;;;;;13.82;3.47;;;;;;;4.47;77.20;102603.81;5015625;28;20049;-80
2024/01/28 11:02:33;;;;;;;11.50;3.40;;;;;;;4.57;75.51;102590.53;4996431;28;20033;-78
2024/01/28 11:04:59;;;;;;;12.70;3.55;;;;;;;4.62;75.06;102593.72;5013222;28;20033;-79
2024/01/28 11:07:25;;;;;;;11.57;3.92;;;;;;;4.66;75.35;102590.09;4997010;28;20030;-79
2024/01/28 11:09:53;;;;;;;18.08;3.72;;;;;;;4.49;76.38;102601.19;5012777;28;20605;-79
2024/01/28 11:12:20;;;;;;;11.73;3.40;;;;;;;4.69;76.34;102584.81;4997969;28;20033;-77